createdAt,value
2017-06-12T00:01:29.603Z,18.30
2017-06-12T00:03:57.133Z,18.30
2017-06-12T00:06:24.703Z,18.30
2017-06-12T00:08:52.291Z,18.20
2017-06-12T00:11:19.855Z,18.10
2017-06-12T00:13:47.725Z,18.10
2017-06-12T00:16:15.279Z,18.10
2017-06-12T00:18:42.925Z,18.00
2017-06-12T00:21:10.487Z,18.00
2017-06-12T00:23:38.043Z,17.90
2017-06-12T00:26:05.571Z,17.90
2017-06-12T00:28:33.177Z,17.80
2017-06-12T00:31:00.834Z,17.80
2017-06-12T00:33:28.371Z,17.90
2017-06-12T00:35:55.899Z,17.90
2017-06-12T00:38:24.218Z,18.00
2017-06-12T00:40:51.750Z,17.90
2017-06-12T00:43:19.302Z,17.90
2017-06-12T00:45:47.628Z,17.90
2017-06-12T00:48:15.158Z,17.90
2017-06-12T00:50:42.714Z,17.90
2017-06-12T00:53:10.273Z,18.00
2017-06-12T00:55:37.811Z,18.00
2017-06-12T00:58:05.360Z,18.00
2017-06-12T01:00:33.722Z,18.10
2017-06-12T01:03:01.257Z,18.10
2017-06-12T01:05:28.789Z,18.20
2017-06-12T01:07:56.373Z,18.20
2017-06-12T01:10:23.908Z,18.20
2017-06-12T01:12:51.439Z,18.20
2017-06-12T01:15:19.761Z,18.20
2017-06-12T01:17:47.293Z,18.10
2017-06-12T01:20:14.844Z,18.00
2017-06-12T01:22:42.404Z,18.00
2017-06-12T01:25:09.973Z,18.00
2017-06-12T01:27:37.502Z,17.90
2017-06-12T01:30:05.028Z,17.80
2017-06-12T01:32:32.605Z,17.80
2017-06-12T01:35:00.139Z,17.70
2017-06-12T01:37:27.674Z,17.60
2017-06-12T01:39:55.232Z,17.60
2017-06-12T01:42:22.766Z,17.60
2017-06-12T01:44:51.058Z,17.60
2017-06-12T01:47:18.617Z,17.50
2017-06-12T01:49:46.150Z,17.50
2017-06-12T01:52:14.472Z,17.40
2017-06-12T01:54:42.134Z,17.30
2017-06-12T01:57:09.662Z,17.30
2017-06-12T01:59:37.960Z,17.30
2017-06-12T02:02:05.537Z,17.30
2017-06-12T02:04:33.073Z,17.30
2017-06-12T02:07:00.656Z,17.20
2017-06-12T02:09:28.213Z,17.20
2017-06-12T02:11:55.774Z,17.10
2017-06-12T02:14:23.312Z,17.10
2017-06-12T02:16:50.899Z,17.00
2017-06-12T02:19:18.455Z,16.90
2017-06-12T02:21:45.983Z,16.80
2017-06-12T02:24:13.549Z,16.80
2017-06-12T02:26:41.083Z,16.70
2017-06-12T02:29:09.415Z,16.80
2017-06-12T02:31:36.990Z,16.70
2017-06-12T02:34:04.716Z,16.90
2017-06-12T02:36:32.293Z,16.90
2017-06-12T02:38:59.850Z,16.90
2017-06-12T02:41:27.390Z,16.80
2017-06-12T02:43:54.927Z,16.70
2017-06-12T02:46:22.870Z,16.50
2017-06-12T02:48:50.698Z,16.40
2017-06-12T02:51:18.347Z,16.40
2017-06-12T02:53:46.023Z,16.30
2017-06-12T02:56:13.563Z,16.30
2017-06-12T02:58:41.098Z,16.40
2017-06-12T03:01:08.790Z,16.40
2017-06-12T03:03:36.329Z,16.30
2017-06-12T03:06:03.857Z,16.30
2017-06-12T03:08:32.188Z,16.20
2017-06-12T03:10:59.757Z,16.20
2017-06-12T03:13:27.417Z,16.10
2017-06-12T03:15:54.953Z,16.10
2017-06-12T03:18:22.535Z,16.10
2017-06-12T03:20:50.099Z,16.20
2017-06-12T03:23:17.643Z,16.30
2017-06-12T03:25:45.181Z,16.30
2017-06-12T03:28:12.739Z,16.40
2017-06-12T03:30:40.359Z,16.40
2017-06-12T03:33:07.887Z,16.50
2017-06-12T03:35:35.442Z,16.50
2017-06-12T03:38:02.974Z,16.50
2017-06-12T03:40:30.519Z,16.60
2017-06-12T03:42:58.850Z,16.70
2017-06-12T03:45:26.386Z,16.60
2017-06-12T03:47:53.922Z,16.70
2017-06-12T03:50:21.470Z,16.80
2017-06-12T03:52:49.790Z,16.90
2017-06-12T03:55:17.308Z,16.90
2017-06-12T03:57:45.624Z,17.10
2017-06-12T04:00:13.194Z,17.00
2017-06-12T04:02:40.719Z,17.10
2017-06-12T04:05:09.174Z,17.20
2017-06-12T04:07:37.615Z,17.30
2017-06-12T04:10:05.149Z,17.30
2017-06-12T04:12:32.679Z,17.40
2017-06-12T04:15:01.013Z,17.60
2017-06-12T04:17:28.667Z,17.60
2017-06-12T04:19:56.215Z,17.80
2017-06-12T04:22:23.781Z,17.80
2017-06-12T04:24:51.333Z,17.90
2017-06-12T04:27:18.899Z,18.00
2017-06-12T04:29:46.459Z,18.10
2017-06-12T04:32:13.983Z,18.10
2017-06-12T04:34:41.555Z,18.20
2017-06-12T04:37:09.083Z,18.20
2017-06-12T04:39:37.514Z,18.30
2017-06-12T04:42:05.073Z,18.30
2017-06-12T04:44:32.607Z,18.30
2017-06-12T04:47:00.162Z,18.30
2017-06-12T04:49:27.766Z,18.40
2017-06-12T04:51:55.322Z,18.40
2017-06-12T04:54:22.860Z,18.50
2017-06-12T04:56:50.394Z,18.50
2017-06-12T04:59:17.942Z,18.50
2017-06-12T05:01:46.256Z,18.50
2017-06-12T05:04:13.785Z,18.50
2017-06-12T05:06:41.348Z,18.50
2017-06-12T05:09:08.885Z,18.50
2017-06-12T05:11:37.181Z,18.60
2017-06-12T05:14:04.774Z,18.60
2017-06-12T05:16:32.329Z,18.60
2017-06-12T05:18:59.867Z,18.70
2017-06-12T05:21:27.429Z,18.90
2017-06-12T05:23:55.017Z,18.90
2017-06-12T05:26:22.769Z,19.10
2017-06-12T05:28:50.371Z,19.20
2017-06-12T05:31:18.001Z,19.50
2017-06-12T05:33:45.555Z,19.70
2017-06-12T05:36:13.124Z,19.70
2017-06-12T05:38:40.680Z,19.60
2017-06-12T05:41:08.331Z,19.60
2017-06-12T05:43:35.892Z,19.50
2017-06-12T05:46:03.438Z,19.50
2017-06-12T05:48:30.970Z,19.50
2017-06-12T05:50:59.286Z,19.70
2017-06-12T05:53:26.814Z,19.70
2017-06-12T05:55:54.378Z,19.90
2017-06-12T05:58:21.913Z,20.10
2017-06-12T06:00:50.213Z,20.70
2017-06-12T06:03:17.782Z,20.60
2017-06-12T06:05:45.332Z,20.80
2017-06-12T06:08:13.120Z,20.90
2017-06-12T06:10:40.678Z,21.00
2017-06-12T06:13:08.225Z,21.10
2017-06-12T06:15:35.761Z,21.10
2017-06-12T06:18:04.090Z,21.00
2017-06-12T06:20:31.651Z,20.90
2017-06-12T06:22:59.199Z,21.00
2017-06-12T06:25:26.831Z,21.10
2017-06-12T06:27:54.427Z,21.40
2017-06-12T06:30:21.961Z,21.70
2017-06-12T06:32:49.539Z,21.90
2017-06-12T06:35:17.089Z,22.10
2017-06-12T06:37:44.621Z,22.20
2017-06-12T06:40:12.227Z,22.40
2017-06-12T06:42:39.767Z,22.40
2017-06-12T06:45:07.341Z,22.30
2017-06-12T06:47:34.913Z,22.20
2017-06-12T06:50:02.875Z,22.10
2017-06-12T06:52:30.426Z,22.00
2017-06-12T06:54:58.086Z,22.30
2017-06-12T06:57:25.622Z,22.80
2017-06-12T06:59:53.150Z,23.20
2017-06-12T07:02:21.676Z,23.20
2017-06-12T07:04:49.214Z,23.20
2017-06-12T07:07:16.842Z,23.00
2017-06-12T07:09:44.378Z,23.00
2017-06-12T07:12:11.932Z,23.40
2017-06-12T07:14:39.586Z,23.90
2017-06-12T07:17:07.127Z,24.30
2017-06-12T07:19:34.666Z,24.40
2017-06-12T07:22:02.241Z,24.30
2017-06-12T07:24:29.775Z,24.20
2017-06-12T07:26:58.085Z,24.10
2017-06-12T07:29:25.689Z,24.10
2017-06-12T07:31:53.227Z,24.20
2017-06-12T07:34:20.817Z,24.10
2017-06-12T07:36:48.380Z,24.30
2017-06-12T07:39:16.681Z,24.40
2017-06-12T07:41:44.243Z,24.40
2017-06-12T07:44:11.781Z,24.60
2017-06-12T07:46:40.087Z,24.70
2017-06-12T07:49:07.657Z,24.70
2017-06-12T07:51:35.190Z,24.80
2017-06-12T07:54:02.757Z,24.80
2017-06-12T07:56:30.294Z,24.90
2017-06-12T07:58:57.831Z,25.10
2017-06-12T08:01:25.388Z,25.20
2017-06-12T08:03:53.027Z,25.20
2017-06-12T08:06:20.558Z,25.20
2017-06-12T08:08:48.110Z,25.10
2017-06-12T08:11:15.649Z,25.20
2017-06-12T08:13:43.993Z,25.20
2017-06-12T08:16:11.524Z,25.20
2017-06-12T08:18:39.099Z,25.00
2017-06-12T08:21:06.762Z,24.90
2017-06-12T08:23:34.290Z,24.80
2017-06-12T08:26:01.831Z,24.60
2017-06-12T08:28:29.408Z,24.60
2017-06-12T08:30:56.935Z,24.70
2017-06-12T08:33:25.261Z,24.80
2017-06-12T08:35:52.812Z,24.80
2017-06-12T08:38:20.352Z,25.10
2017-06-12T08:40:47.971Z,25.30
2017-06-12T08:43:15.549Z,25.40
2017-06-12T08:45:43.085Z,25.50
2017-06-12T08:48:10.640Z,25.30
2017-06-12T08:50:38.210Z,25.20
2017-06-12T08:53:05.854Z,25.00
2017-06-12T08:55:33.384Z,24.80
2017-06-12T08:58:00.944Z,24.60
2017-06-12T09:00:28.504Z,24.50
2017-06-12T09:02:56.046Z,24.40
2017-06-12T09:05:23.580Z,24.20
2017-06-12T09:07:51.146Z,24.20
2017-06-12T09:10:19.450Z,24.40
2017-06-12T09:12:46.982Z,24.40
2017-06-12T09:15:14.550Z,24.50
2017-06-12T09:17:42.164Z,24.80
2017-06-12T09:20:09.711Z,24.90
2017-06-12T09:22:37.271Z,25.00
2017-06-12T09:25:04.831Z,25.10
2017-06-12T09:27:32.362Z,25.50
2017-06-12T09:29:59.899Z,25.50
2017-06-12T09:32:27.505Z,25.80
2017-06-12T09:34:55.041Z,25.70
2017-06-12T09:37:22.575Z,25.70
2017-06-12T09:39:50.203Z,25.80
2017-06-12T09:42:17.747Z,25.80
2017-06-12T09:44:45.301Z,25.80
2017-06-12T09:47:12.974Z,25.90
2017-06-12T09:49:40.542Z,26.10
2017-06-12T09:52:08.103Z,26.10
2017-06-12T09:54:35.755Z,26.20
2017-06-12T09:57:03.302Z,26.30
2017-06-12T09:59:30.839Z,26.50
2017-06-12T10:01:58.407Z,26.80
2017-06-12T10:04:25.946Z,27.00
2017-06-12T10:06:54.242Z,27.30
2017-06-12T10:09:21.931Z,27.20
2017-06-12T10:11:49.472Z,27.20
2017-06-12T10:14:17.006Z,26.80
2017-06-12T10:16:44.573Z,26.50
2017-06-12T10:19:12.108Z,26.30
2017-06-12T10:21:40.120Z,26.40
2017-06-12T10:24:07.896Z,26.60
2017-06-12T10:26:35.680Z,26.70
2017-06-12T10:29:03.224Z,26.80
2017-06-12T10:31:30.772Z,26.90
2017-06-12T10:33:58.445Z,27.10
2017-06-12T10:36:26.001Z,27.20
2017-06-12T10:38:53.533Z,27.00
2017-06-12T10:41:21.109Z,27.20
2017-06-12T10:43:48.646Z,27.40
2017-06-12T10:46:16.185Z,27.40
2017-06-12T10:48:44.549Z,27.70
2017-06-12T10:51:12.117Z,27.80
2017-06-12T10:53:39.687Z,27.90
2017-06-12T10:56:07.235Z,28.30
2017-06-12T10:58:35.584Z,28.40
2017-06-12T11:01:03.126Z,28.40
2017-06-12T11:03:31.002Z,28.70
2017-06-12T11:05:58.657Z,29.10
2017-06-12T11:08:26.190Z,29.20
2017-06-12T11:10:53.725Z,29.20
2017-06-12T11:13:22.058Z,30.00
2017-06-12T11:15:49.593Z,30.00
2017-06-12T11:18:17.174Z,30.30
2017-06-12T11:20:44.733Z,30.00
2017-06-12T11:23:12.287Z,29.10
2017-06-12T11:25:42.685Z,28.90
2017-06-12T11:28:10.217Z,28.80
2017-06-12T11:30:52.671Z,28.90
2017-06-12T11:33:20.252Z,30.50
2017-06-12T11:35:47.893Z,32.00
2017-06-12T11:38:15.459Z,33.10
2017-06-12T11:40:43.247Z,33.90
2017-06-12T11:43:10.789Z,34.30
2017-06-12T11:45:38.337Z,33.80
2017-06-12T11:48:05.905Z,33.00
2017-06-12T11:50:33.441Z,31.40
2017-06-12T11:53:00.979Z,30.10
2017-06-12T11:55:29.342Z,30.20
2017-06-12T11:57:57.692Z,30.40
2017-06-12T12:00:25.231Z,30.40
2017-06-12T12:02:52.780Z,32.30
2017-06-12T12:05:20.335Z,33.30
2017-06-12T12:07:47.870Z,34.70
2017-06-12T12:10:15.466Z,35.90
2017-06-12T12:12:43.000Z,37.00
2017-06-12T12:15:10.538Z,37.80
2017-06-12T12:17:38.962Z,36.60
2017-06-12T12:20:06.522Z,36.60
2017-06-12T12:22:34.053Z,37.80
2017-06-12T12:25:01.610Z,38.60
2017-06-12T12:27:29.137Z,39.20
2017-06-12T12:29:57.032Z,40.10
2017-06-12T12:32:25.359Z,39.40
2017-06-12T12:34:52.893Z,39.40
2017-06-12T12:37:20.427Z,39.80
2017-06-12T12:39:48.003Z,39.70
2017-06-12T12:42:15.535Z,39.40
2017-06-12T12:44:43.828Z,41.00
2017-06-12T12:47:11.383Z,41.00
2017-06-12T12:49:38.951Z,41.30
2017-06-12T12:52:06.491Z,40.90
2017-06-12T12:54:34.028Z,40.70
2017-06-12T12:57:01.607Z,40.90
2017-06-12T12:59:29.143Z,40.70
2017-06-12T13:01:56.678Z,40.70
2017-06-12T13:04:24.341Z,40.80
2017-06-12T13:06:51.885Z,40.60
2017-06-12T13:09:19.422Z,40.80
2017-06-12T13:11:47.010Z,40.40
2017-06-12T13:14:14.537Z,40.80
2017-06-12T13:16:42.076Z,40.90
2017-06-12T13:19:10.402Z,39.50
2017-06-12T13:21:37.944Z,39.50
2017-06-12T13:24:05.622Z,39.70
2017-06-12T13:26:33.151Z,38.00
2017-06-12T13:29:00.769Z,37.00
2017-06-12T13:31:28.334Z,35.30
2017-06-12T13:33:55.984Z,35.30
2017-06-12T13:36:23.524Z,35.40
2017-06-12T13:38:51.091Z,34.30
2017-06-12T13:41:18.963Z,35.00
2017-06-12T13:43:46.507Z,37.20
2017-06-12T13:46:14.091Z,37.50
2017-06-12T13:48:41.727Z,37.50
2017-06-12T13:51:09.303Z,36.70
2017-06-12T13:53:36.845Z,37.00
2017-06-12T13:56:04.425Z,37.60
2017-06-12T13:58:31.970Z,38.10
2017-06-12T14:00:59.523Z,39.00
2017-06-12T14:03:27.099Z,39.50
2017-06-12T14:05:54.638Z,39.40
2017-06-12T14:08:22.166Z,39.10
2017-06-12T14:10:50.478Z,39.40
2017-06-12T14:13:18.009Z,39.40
2017-06-12T14:15:45.698Z,39.50
2017-06-12T14:18:13.276Z,39.40
2017-06-12T14:20:40.811Z,38.90
2017-06-12T14:23:08.381Z,39.20
2017-06-12T14:25:35.914Z,39.00
2017-06-12T14:28:03.446Z,38.80
2017-06-12T14:30:31.777Z,38.40
2017-06-12T14:32:59.313Z,38.40
2017-06-12T14:35:26.895Z,38.50
2017-06-12T14:37:54.472Z,37.90
2017-06-12T14:40:22.009Z,37.80
2017-06-12T14:42:49.567Z,36.70
2017-06-12T14:45:17.145Z,36.70
2017-06-12T14:47:44.699Z,38.20
2017-06-12T14:50:12.345Z,37.90
2017-06-12T14:52:39.893Z,38.10
2017-06-12T14:55:07.448Z,37.70
2017-06-12T14:57:35.031Z,37.90
2017-06-12T15:00:02.563Z,36.90
2017-06-12T15:02:30.099Z,37.20
2017-06-12T15:04:58.431Z,34.80
2017-06-12T15:07:25.962Z,34.70
2017-06-12T15:09:54.370Z,34.80
2017-06-12T15:12:21.890Z,35.20
2017-06-12T15:14:49.424Z,36.10
2017-06-12T15:17:17.800Z,37.50
2017-06-12T15:19:46.102Z,37.70
2017-06-12T15:22:13.638Z,37.70
2017-06-12T15:24:42.063Z,37.00
2017-06-12T15:27:09.608Z,37.00
2017-06-12T15:29:37.150Z,36.90
2017-06-12T15:32:04.718Z,37.10
2017-06-12T15:34:32.254Z,37.10
2017-06-12T15:37:00.557Z,37.50
2017-06-12T15:39:28.138Z,37.50
2017-06-12T15:41:55.673Z,37.30
2017-06-12T15:44:23.228Z,37.30
2017-06-12T15:46:50.917Z,36.90
2017-06-12T15:49:18.445Z,36.30
2017-06-12T15:51:45.991Z,35.60
2017-06-12T15:54:14.341Z,35.70
2017-06-12T15:56:41.873Z,35.70
2017-06-12T15:59:09.422Z,35.90
2017-06-12T16:01:36.991Z,36.30
2017-06-12T16:04:04.530Z,37.00
2017-06-12T16:06:32.066Z,37.00
2017-06-12T16:09:00.402Z,37.50
2017-06-12T16:11:27.931Z,37.50
2017-06-12T16:13:55.468Z,37.10
2017-06-12T16:16:23.074Z,37.30
2017-06-12T16:18:50.610Z,37.50
2017-06-12T16:21:18.158Z,37.90
2017-06-12T16:23:45.741Z,37.60
2017-06-12T16:26:13.298Z,36.40
2017-06-12T16:28:40.829Z,35.90
2017-06-12T16:31:08.413Z,34.90
2017-06-12T16:33:35.945Z,33.90
2017-06-12T16:36:03.478Z,32.90
2017-06-12T16:38:31.047Z,32.00
2017-06-12T16:40:59.360Z,30.90
2017-06-12T16:43:26.911Z,30.90
2017-06-12T16:45:54.477Z,30.10
2017-06-12T16:48:22.011Z,29.40
2017-06-12T16:50:50.343Z,28.50
2017-06-12T16:53:17.880Z,28.40
2017-06-12T16:55:45.419Z,28.10
2017-06-12T16:58:13.011Z,28.00
2017-06-12T17:00:40.539Z,27.90
2017-06-12T17:03:08.073Z,27.70
2017-06-12T17:05:35.892Z,27.60
2017-06-12T17:08:03.440Z,27.50
2017-06-12T17:10:30.974Z,27.30
2017-06-12T17:12:58.534Z,27.30
2017-06-12T17:15:26.071Z,27.20
2017-06-12T17:17:53.690Z,27.00
2017-06-12T17:20:21.266Z,26.70
2017-06-12T17:22:48.795Z,26.60
2017-06-12T17:25:16.334Z,26.50
2017-06-12T17:27:43.918Z,26.40
2017-06-12T17:30:11.489Z,26.40
2017-06-12T17:32:39.027Z,26.40
2017-06-12T17:35:06.566Z,26.40
2017-06-12T17:37:34.125Z,26.60
2017-06-12T17:40:01.660Z,26.80
2017-06-12T17:42:29.232Z,26.70
2017-06-12T17:44:56.792Z,26.80
2017-06-12T17:47:25.090Z,26.80
2017-06-12T17:49:52.689Z,26.80
2017-06-12T17:52:20.299Z,26.90
2017-06-12T17:54:47.830Z,26.90
2017-06-12T17:57:15.407Z,26.80
2017-06-12T17:59:42.936Z,26.60
2017-06-12T18:02:10.479Z,26.40
2017-06-12T18:04:38.047Z,26.20
2017-06-12T18:07:05.603Z,26.00
2017-06-12T18:09:33.163Z,25.80
2017-06-12T18:12:00.693Z,25.60
2017-06-12T18:14:28.870Z,25.30
2017-06-12T18:16:56.435Z,25.20
2017-06-12T18:19:23.963Z,25.10
2017-06-12T18:21:51.504Z,24.90
2017-06-12T18:24:19.066Z,24.80
2017-06-12T18:26:46.608Z,24.60
2017-06-12T18:29:16.662Z,24.40
2017-06-12T18:31:44.244Z,24.20
2017-06-12T18:34:11.774Z,24.00
2017-06-12T18:36:39.310Z,23.80
2017-06-12T18:39:06.874Z,23.60
2017-06-12T18:41:34.480Z,23.40
2017-06-12T18:44:02.024Z,23.30
2017-06-12T18:46:29.594Z,23.10
2017-06-12T18:48:57.129Z,23.00
2017-06-12T18:51:24.674Z,22.80
2017-06-12T18:53:52.237Z,22.70
2017-06-12T18:56:19.867Z,22.60
2017-06-12T18:58:48.183Z,22.20
2017-06-12T19:01:15.727Z,22.20
2017-06-12T19:03:43.299Z,22.10
2017-06-12T19:06:10.852Z,22.00
2017-06-12T19:08:38.395Z,21.90
2017-06-12T19:11:06.739Z,21.60
2017-06-12T19:13:34.392Z,21.60
2017-06-12T19:16:01.947Z,21.50
2017-06-12T19:18:29.603Z,21.30
2017-06-12T19:20:57.147Z,21.10
2017-06-12T19:23:24.700Z,21.00
2017-06-12T19:25:52.263Z,20.90
2017-06-12T19:28:19.856Z,20.70
2017-06-12T19:30:47.762Z,20.60
2017-06-12T19:33:15.335Z,20.50
2017-06-12T19:35:43.102Z,20.40
2017-06-12T19:38:10.770Z,20.30
2017-06-12T19:40:38.354Z,20.20
2017-06-12T19:43:05.891Z,20.10
2017-06-12T19:45:33.463Z,20.00
2017-06-12T19:48:01.312Z,19.90
2017-06-12T19:50:28.905Z,19.80
2017-06-12T19:52:56.464Z,19.70
2017-06-12T19:55:24.036Z,19.50
2017-06-12T19:57:52.360Z,19.20
2017-06-12T20:00:19.913Z,19.20
2017-06-12T20:02:47.482Z,19.00
2017-06-12T20:05:15.083Z,18.90
2017-06-12T20:07:42.675Z,18.80
2017-06-12T20:10:10.224Z,18.70
2017-06-12T20:12:37.769Z,18.70
2017-06-12T20:15:06.123Z,18.50
2017-06-12T20:17:33.679Z,18.50
2017-06-12T20:20:01.214Z,18.50
2017-06-12T20:22:28.797Z,18.40
2017-06-12T20:24:56.346Z,18.40
2017-06-12T20:27:23.895Z,18.30
2017-06-12T20:29:51.454Z,18.30
2017-06-12T20:32:19.051Z,18.20
2017-06-12T20:34:46.589Z,18.10
2017-06-12T20:37:14.371Z,18.00
2017-06-12T20:39:42.679Z,17.80
2017-06-12T20:42:10.226Z,17.80
2017-06-12T20:44:37.908Z,17.80
2017-06-12T20:47:05.448Z,17.70
2017-06-12T20:49:33.128Z,17.50
2017-06-12T20:52:00.694Z,17.50
2017-06-12T20:54:28.366Z,17.40
2017-06-12T20:56:55.913Z,17.30
2017-06-12T20:59:23.471Z,17.20
2017-06-12T21:01:51.035Z,17.20
2017-06-12T21:04:18.574Z,17.10
2017-06-12T21:06:46.133Z,17.00
2017-06-12T21:09:13.717Z,16.90
2017-06-12T21:11:41.273Z,16.80
2017-06-12T21:14:08.899Z,16.80
2017-06-12T21:16:36.801Z,16.70
2017-06-12T21:19:04.659Z,16.60
2017-06-12T21:21:32.441Z,16.50
2017-06-12T21:24:00.295Z,16.50
2017-06-12T21:26:28.424Z,16.50
2017-06-12T21:28:56.010Z,16.50
2017-06-12T21:31:23.551Z,16.40
2017-06-12T21:33:51.159Z,16.30
2017-06-12T21:36:18.758Z,16.20
2017-06-12T21:38:47.062Z,15.90
2017-06-12T21:41:14.605Z,15.90
2017-06-12T21:43:42.179Z,15.90
2017-06-12T21:46:09.713Z,15.70
2017-06-12T21:48:38.020Z,15.70
2017-06-12T21:51:05.639Z,15.60
2017-06-12T21:53:33.266Z,15.70
2017-06-12T21:56:00.915Z,15.60
2017-06-12T21:58:28.478Z,15.50
2017-06-12T22:00:56.016Z,15.50
2017-06-12T22:03:23.547Z,15.40
2017-06-12T22:05:51.869Z,15.30
2017-06-12T22:08:19.449Z,15.30
2017-06-12T22:10:46.993Z,15.20
2017-06-12T22:13:14.549Z,15.20
2017-06-12T22:15:42.450Z,15.20
2017-06-12T22:18:10.088Z,15.10
2017-06-12T22:20:37.651Z,15.10
2017-06-12T22:23:05.188Z,15.00
2017-06-12T22:25:32.726Z,14.90
2017-06-12T22:28:00.289Z,14.90
2017-06-12T22:30:27.823Z,14.90
2017-06-12T22:32:56.162Z,14.80
2017-06-12T22:35:23.747Z,14.80
2017-06-12T22:37:51.282Z,14.80
2017-06-12T22:40:18.814Z,14.70
2017-06-12T22:42:46.374Z,14.80
2017-06-12T22:45:13.915Z,14.80
2017-06-12T22:47:41.445Z,14.90
2017-06-12T22:50:09.024Z,14.90
2017-06-12T22:52:36.558Z,14.80
2017-06-12T22:55:04.201Z,14.70
2017-06-12T22:57:31.795Z,14.60
2017-06-12T23:00:00.113Z,14.60
2017-06-12T23:02:27.688Z,14.50
2017-06-12T23:04:55.237Z,14.60
2017-06-12T23:07:22.809Z,14.60
2017-06-12T23:09:50.348Z,14.60
2017-06-12T23:12:18.379Z,14.50
2017-06-12T23:14:46.719Z,14.40
2017-06-12T23:17:14.265Z,14.40
2017-06-12T23:19:41.837Z,14.30
2017-06-12T23:22:09.399Z,14.10
2017-06-12T23:24:36.947Z,14.00
2017-06-12T23:27:04.479Z,14.00
2017-06-12T23:29:32.044Z,14.00
2017-06-12T23:31:59.583Z,13.90
2017-06-12T23:34:27.138Z,13.90
2017-06-12T23:36:55.558Z,13.90
2017-06-12T23:39:23.094Z,13.90
2017-06-12T23:41:50.650Z,14.00
2017-06-12T23:44:18.231Z,14.00
2017-06-12T23:46:45.802Z,14.00
2017-06-12T23:49:13.342Z,14.00
2017-06-12T23:51:40.886Z,14.00
2017-06-12T23:54:08.446Z,13.90
2017-06-12T23:56:35.983Z,13.90
2017-06-12T23:59:04.415Z,13.90
